This is the latest recevied weather packets stored in our database for station/object VK5GR-12. If no packets are shown the sender has not sent any weather packets the latest 10 day(s).
| Time | Temp. | Humidity | Pressure | Rain* | Wind** | Luminosity | Snow |
|---|---|---|---|---|---|---|---|
| 1777520437 | 27.78° C | 28% | 1020.2 hPa | 0 mm | - | 456 W/m² | - |
| 1777519535 | 28.33° C | 28% | 1020.7 hPa | 0 mm | - | 466 W/m² | - |
| 1777518635 | 28.89° C | 26% | 1020.7 hPa | 0 mm | - | 472 W/m² | - |
| 1777517730 | 28.89° C | 25% | 1021 hPa | 0 mm | - | 494 W/m² | - |
| 1777516829 | 28.89° C | 25% | 1021.3 hPa | 0 mm | - | 507 W/m² | - |
| 1777515923 | 28.33° C | 25% | 1021.5 hPa | 0 mm | - | 509 W/m² | - |
| 1777515019 | 28.33° C | 26% | 1021.8 hPa | 0 mm | - | 489 W/m² | - |
| 1777514115 | 27.78° C | 26% | 1021.9 hPa | 0 mm | - | 513 W/m² | - |
| 1777513212 | 27.22° C | 29% | 1022.1 hPa | 0 mm | - | 591 W/m² | - |
| 1777512307 | 26.67° C | 30% | 1022.2 hPa | 0 mm | - | 305 W/m² | - |
| 1777511405 | 26.11° C | 30% | 1022.4 hPa | 0 mm | - | 245 W/m² | - |
| 1777510500 | 26.11° C | 30% | 1022.4 hPa | 0 mm | - | 214 W/m² | - |
| 1777509600 | 25° C | 31% | 1022.6 hPa | 0 mm | - | 218 W/m² | - |
| 1777508697 | 24.44° C | 33% | 1022.9 hPa | 0 mm | - | 183 W/m² | - |
| 1777507794 | 24.44° C | 32% | 1023 hPa | 0 mm | - | 152 W/m² | - |
| 1777506891 | 23.89° C | 32% | 1023 hPa | 0 mm | - | 148 W/m² | - |
| 1777505986 | 23.89° C | 33% | 1023.2 hPa | 0 mm | - | 195 W/m² | - |
| 1777505087 | 23.33° C | 32% | 1023 hPa | 0 mm | - | 123 W/m² | - |
| 1777504183 | 23.33° C | 32% | 1022.9 hPa | 0 mm | - | 93 W/m² | - |
| 1777503278 | 22.78° C | 33% | 1022.8 hPa | 0 mm | - | 87 W/m² | - |
| 1777502374 | 22.78° C | 32% | 1022.7 hPa | 0 mm | - | 66 W/m² | - |
| 1777501471 | 22.78° C | 32% | 1022.5 hPa | 0 mm | - | 51 W/m² | - |
| 1777500569 | 22.78° C | 31% | 1022.5 hPa | 0 mm | - | 31 W/m² | - |
| 1777499664 | 22.78° C | 31% | 1022.3 hPa | 0 mm | - | 14 W/m² | - |
| 1777498761 | 22.78° C | 31% | 1022.2 hPa | 0 mm | - | 6 W/m² | - |
* Rain latest hour (hover to see other rain measurements)
** Current wind speed in m/s (hover to see current wind gust speed)